Something Good — SGOOD — position and weather

sailwx.info

Track history (hours):
 
Tides and Currents Weather Stations Pressure Air Temp Water Temp Dewpoint Dewpoint Depression Visibility Wind Speed Wind Dir Waves Ship Positions

Something Good

Last reported at 2014-Aug-18 15:05 UTC. Time now 2014-Aug-21 02:24 UTC.
Position N 41°16' W 072°28'.

Length 6 m.

Type: Pleasure craft. MMSI: 338093231.

Date/timePositionNaut miles runAvg speedWind from/ knotsBaromVisibWave heightAir tempDewpointWater temp
2014-Aug-18 15:05N 41°16' W 072°28'0 0.0
2014-Aug-18 14:32N 41°16' W 072°28'0 0.0
2014-Aug-18 13:32N 41°16' W 072°28'0 0.0
2014-Aug-18 12:32N 41°16' W 072°28'0 0.0
2014-Aug-18 11:32N 41°16' W 072°28'0 0.0
2014-Aug-18 10:33N 41°16' W 072°28'0 0.0
2014-Aug-18 09:30N 41°16' W 072°28'0 0.0
2014-Aug-18 08:33N 41°16' W 072°28'0 0.0
2014-Aug-18 07:33N 41°16' W 072°28'0 0.0
2014-Aug-18 06:30N 41°16' W 072°28'0 0.0
2014-Aug-18 05:33N 41°16' W 072°28'0 0.0
2014-Aug-18 04:33N 41°16' W 072°28'0 0.0
2014-Aug-18 03:33N 41°16' W 072°28'0 0.0
2014-Aug-18 02:33N 41°16' W 072°28'0 0.0
2014-Aug-18 01:33N 41°16' W 072°28'0 0.0
2014-Aug-18 00:33N 41°16' W 072°28'0 0.0
2014-Aug-17 18:29N 41°16' W 072°28'7 7.8
2014-Aug-17 17:33N 41°14' W 072°19'1414.2
2014-Aug-17 16:33N 41°15' W 072°00'1413.8
2014-Aug-17 15:33N 41°17' W 071°42'1312.8
2014-Aug-17 14:32N 41°21' W 071°26'10 3.2
2014-Aug-17 11:31N 41°29' W 071°19'0 0.0
2014-Aug-17 10:33N 41°29' W 071°19'0 0.0
2014-Aug-17 09:31N 41°29' W 071°19'0 0.0
2014-Aug-17 08:33N 41°29' W 071°19'0 0.0
2014-Aug-17 07:33N 41°29' W 071°19'0 0.0
2014-Aug-16 08:33N 41°29' W 071°19'0 0.0
2014-Aug-16 07:33N 41°29' W 071°19'0 0.0
2014-Aug-16 06:32N 41°29' W 071°19'4 0.3
2014-Aug-15 16:20N 41°25' W 071°21'  
2014-Aug-12 02:32N 41°27' W 070°36'0 0.0
2014-Aug-12 01:32N 41°27' W 070°36'0 0.0
2014-Aug-12 00:32N 41°27' W 070°36'0 0.0
2014-Aug-11 23:26N 41°27' W 070°36'0 0.0
2014-Aug-11 19:14N 41°27' W 070°36'0 0.0
2014-Aug-11 09:29N 41°27' W 070°36'0 0.0
2014-Aug-11 08:32N 41°27' W 070°36'0 0.0
2014-Aug-11 07:29N 41°27' W 070°36'0 0.0
2014-Aug-11 05:14N 41°27' W 070°36'0 0.0
2014-Aug-11 04:32N 41°27' W 070°36'0 0.0
2014-Aug-11 01:17N 41°27' W 070°36'0 0.0
2014-Aug-11 00:32N 41°27' W 070°36'0 0.0
2014-Aug-10 09:32N 41°27' W 070°36'0 0.0
2014-Aug-10 06:32N 41°27' W 070°36'0 0.0
2014-Aug-10 05:32N 41°27' W 070°36'0 0.0
2014-Aug-10 04:32N 41°27' W 070°36'38 3.2
2014-Aug-09 16:33N 41°19' W 071°26'1818.1
2014-Aug-09 15:33N 41°15' W 071°49'1716.9
2014-Aug-09 14:33N 41°14' W 072°12'1212.4
2014-Aug-09 13:33N 41°15' W 072°28'1 0.9
2014-Aug-09 12:32N 41°16' W 072°28'0 0.0
2014-Aug-09 11:32N 41°16' W 072°28'0 0.0
2014-Aug-09 10:32N 41°16' W 072°28'0 0.0
2014-Aug-09 09:32N 41°16' W 072°28'0 0.0
2014-Aug-09 08:32N 41°16' W 072°28'0 0.0
2014-Aug-09 07:32N 41°16' W 072°28'0 0.0
2014-Aug-09 06:32N 41°16' W 072°28'0 0.0
2014-Aug-09 05:32N 41°16' W 072°28'0 0.0
2014-Aug-09 04:32N 41°16' W 072°28'0 0.0
2014-Aug-09 03:32N 41°16' W 072°28'0 0.0
2014-Aug-09 02:32N 41°16' W 072°28'0 0.0
2014-Aug-09 01:32N 41°16' W 072°28'0 0.0
2014-Aug-09 00:32N 41°16' W 072°28'0 0.0
2014-Aug-08 23:32N 41°16' W 072°28'0 0.0
2014-Aug-08 22:32N 41°16' W 072°28'0 0.0
2014-Aug-08 21:32N 41°16' W 072°28'0 0.0
2014-Aug-08 20:32N 41°16' W 072°28'0 0.0
2014-Aug-08 19:32N 41°16' W 072°28'0 0.0
2014-Aug-08 18:32N 41°16' W 072°28'  
Track history (hours):
 
Tides and Currents Weather Stations Pressure Air Temp Water Temp Dewpoint Dewpoint Depression Visibility Wind Speed Wind Dir Waves Ship Positions

Something Good

Last reported at 2014-Aug-18 15:05 UTC. Time now 2014-Aug-21 02:24 UTC.
Position N 41°16' W 072°28'.

Length 6 m.

Type: Pleasure craft. MMSI: 338093231.

Date/timePositionNaut miles runAvg speedWind from/ knotsBaromVisibWave heightAir tempDewpointWater temp
2014-Aug-18 15:05N 41°16' W 072°28'0 0.0
2014-Aug-18 14:32N 41°16' W 072°28'0 0.0
2014-Aug-18 13:32N 41°16' W 072°28'0 0.0
2014-Aug-18 12:32N 41°16' W 072°28'0 0.0
2014-Aug-18 11:32N 41°16' W 072°28'0 0.0
2014-Aug-18 10:33N 41°16' W 072°28'0 0.0
2014-Aug-18 09:30N 41°16' W 072°28'0 0.0
2014-Aug-18 08:33N 41°16' W 072°28'0 0.0
2014-Aug-18 07:33N 41°16' W 072°28'0 0.0
2014-Aug-18 06:30N 41°16' W 072°28'0 0.0
2014-Aug-18 05:33N 41°16' W 072°28'0 0.0
2014-Aug-18 04:33N 41°16' W 072°28'0 0.0
2014-Aug-18 03:33N 41°16' W 072°28'0 0.0
2014-Aug-18 02:33N 41°16' W 072°28'0 0.0
2014-Aug-18 01:33N 41°16' W 072°28'0 0.0
2014-Aug-18 00:33N 41°16' W 072°28'0 0.0
2014-Aug-17 18:29N 41°16' W 072°28'7 7.8
2014-Aug-17 17:33N 41°14' W 072°19'1414.2
2014-Aug-17 16:33N 41°15' W 072°00'1413.8
2014-Aug-17 15:33N 41°17' W 071°42'1312.8
2014-Aug-17 14:32N 41°21' W 071°26'10 3.2
2014-Aug-17 11:31N 41°29' W 071°19'0 0.0
2014-Aug-17 10:33N 41°29' W 071°19'0 0.0
2014-Aug-17 09:31N 41°29' W 071°19'0 0.0
2014-Aug-17 08:33N 41°29' W 071°19'0 0.0
2014-Aug-17 07:33N 41°29' W 071°19'0 0.0
2014-Aug-16 08:33N 41°29' W 071°19'0 0.0
2014-Aug-16 07:33N 41°29' W 071°19'0 0.0
2014-Aug-16 06:32N 41°29' W 071°19'4 0.3
2014-Aug-15 16:20N 41°25' W 071°21'  
2014-Aug-12 02:32N 41°27' W 070°36'0 0.0
2014-Aug-12 01:32N 41°27' W 070°36'0 0.0
2014-Aug-12 00:32N 41°27' W 070°36'0 0.0
2014-Aug-11 23:26N 41°27' W 070°36'0 0.0
2014-Aug-11 19:14N 41°27' W 070°36'0 0.0
2014-Aug-11 09:29N 41°27' W 070°36'0 0.0
2014-Aug-11 08:32N 41°27' W 070°36'0 0.0
2014-Aug-11 07:29N 41°27' W 070°36'0 0.0
2014-Aug-11 05:14N 41°27' W 070°36'0 0.0
2014-Aug-11 04:32N 41°27' W 070°36'0 0.0
2014-Aug-11 01:17N 41°27' W 070°36'0 0.0
2014-Aug-11 00:32N 41°27' W 070°36'0 0.0
2014-Aug-10 09:32N 41°27' W 070°36'0 0.0
2014-Aug-10 06:32N 41°27' W 070°36'0 0.0
2014-Aug-10 05:32N 41°27' W 070°36'0 0.0
2014-Aug-10 04:32N 41°27' W 070°36'38 3.2
2014-Aug-09 16:33N 41°19' W 071°26'1818.1
2014-Aug-09 15:33N 41°15' W 071°49'1716.9
2014-Aug-09 14:33N 41°14' W 072°12'1212.4
2014-Aug-09 13:33N 41°15' W 072°28'1 0.9
2014-Aug-09 12:32N 41°16' W 072°28'0 0.0
2014-Aug-09 11:32N 41°16' W 072°28'0 0.0
2014-Aug-09 10:32N 41°16' W 072°28'0 0.0
2014-Aug-09 09:32N 41°16' W 072°28'0 0.0
2014-Aug-09 08:32N 41°16' W 072°28'0 0.0
2014-Aug-09 07:32N 41°16' W 072°28'0 0.0
2014-Aug-09 06:32N 41°16' W 072°28'0 0.0
2014-Aug-09 05:32N 41°16' W 072°28'0 0.0
2014-Aug-09 04:32N 41°16' W 072°28'0 0.0
2014-Aug-09 03:32N 41°16' W 072°28'0 0.0
2014-Aug-09 02:32N 41°16' W 072°28'0 0.0
2014-Aug-09 01:32N 41°16' W 072°28'0 0.0
2014-Aug-09 00:32N 41°16' W 072°28'0 0.0
2014-Aug-08 23:32N 41°16' W 072°28'0 0.0
2014-Aug-08 22:32N 41°16' W 072°28'0 0.0
2014-Aug-08 21:32N 41°16' W 072°28'0 0.0
2014-Aug-08 20:32N 41°16' W 072°28'0 0.0
2014-Aug-08 19:32N 41°16' W 072°28'0 0.0
2014-Aug-08 18:32N 41°16' W 072°28'  

Dump ship's entire track history